Time;durP1;ratioP1;P1;durP2;ratioP2;P2;SDS_P1;SDS_P2;PMS_P1;PMS_P2;Temp;Humidity;BMP_temperature;BMP_pressure;BME280_temperature;BME280_humidity;BME280_pressure;Samples;Min_cycle;Max_cycle;Signal;HPM_P1;HPM_P2
2022/03/28 00:02:13;;;;;;;6.53;2.20;;;;;;;;;;5092438;28;20089;-84
2022/03/28 00:04:38;;;;;;;17.13;2.05;;;;;;;;;;5092266;28;20127;-84
2022/03/28 00:07:04;;;;;;;6.97;2.55;;;;;;;;;;5092351;28;20029;-84
2022/03/28 00:09:29;;;;;;;8.32;2.88;;;;;;;;;;5092507;28;20032;-84
2022/03/28 00:11:55;;;;;;;11.38;2.85;;;;;;;;;;5074436;28;20036;-85
2022/03/28 00:14:20;;;;;;;8.20;2.53;;;;;;;;;;5074130;28;20032;-82
2022/03/28 00:16:46;;;;;;;7.05;2.20;;;;;;;;;;5073913;28;20024;-82
2022/03/28 00:19:11;;;;;;;7.78;2.75;;;;;;;;;;5074377;28;20024;-82
2022/03/28 00:21:37;;;;;;;8.10;2.63;;;;;;;;;;5073779;28;20024;-82
2022/03/28 00:24:03;;;;;;;5.32;2.35;;;;;;;;;;5057288;28;20032;-82
2022/03/28 00:26:28;;;;;;;6.25;2.33;;;;;;;;;;5057317;28;20038;-83
2022/03/28 00:28:54;;;;;;;8.23;2.08;;;;;;;;;;5074138;28;20024;-82
2022/03/28 00:31:19;;;;;;;7.72;2.15;;;;;;;;;;5074098;28;20039;-82
2022/03/28 00:33:45;;;;;;;5.50;2.10;;;;;;;;;;5056972;28;20081;-82
2022/03/28 00:36:11;;;;;;;8.00;2.50;;;;;;;;;;5074174;28;20024;-83
2022/03/28 00:38:37;;;;;;;6.28;2.30;;;;;;;;;;5073896;28;20435;-82
2022/03/28 00:41:04;;;;;;;7.38;2.25;;;;;;;;;;5074246;28;20524;-83
2022/03/28 00:43:29;;;;;;;6.57;2.05;;;;;;;;;;5073915;28;20020;-82
2022/03/28 00:45:57;;;;;;;6.45;2.63;;;;;;;;;;5074204;28;20112;-83
2022/03/28 00:48:26;;;;;;;5.60;2.15;;;;;;;;;;5040472;28;20070;-82
2022/03/28 00:50:53;;;;;;;8.88;2.10;;;;;;;;;;5074317;28;20439;-82
2022/03/28 00:53:19;;;;;;;5.70;2.50;;;;;;;;;;5074830;28;20032;-83
2022/03/28 00:55:45;;;;;;;6.35;2.20;;;;;;;;;;5077302;28;20024;-83
2022/03/28 00:58:11;;;;;;;6.47;2.05;;;;;;;;;;5060912;28;20113;-83
2022/03/28 01:00:36;;;;;;;6.05;2.13;;;;;;;;;;5095429;28;20120;-82
2022/03/28 01:03:03;;;;;;;10.02;2.97;;;;;;;;;;5060507;28;20485;-84
2022/03/28 01:05:28;;;;;;;16.92;2.50;;;;;;;;;;5060464;28;20055;-83
2022/03/28 01:07:55;;;;;;;6.05;2.20;;;;;;;;;;5094948;28;20028;-82
2022/03/28 01:10:21;;;;;;;6.13;2.13;;;;;;;;;;5095194;28;20056;-83
2022/03/28 01:12:46;;;;;;;6.30;2.22;;;;;;;;;;5077377;28;20074;-83
2022/03/28 01:15:14;;;;;;;8.50;3.03;;;;;;;;;;5060119;28;20035;-82
2022/03/28 01:20:27;;;;;;;5.13;1.98;;;;;;;;;;5079686;28;20105;-82
2022/03/28 01:22:53;;;;;;;5.22;1.90;;;;;;;;;;5060232;28;20031;-82
2022/03/28 01:25:24;;;;;;;6.90;2.30;;;;;;;;;;5095066;28;20043;-82
2022/03/28 01:27:52;;;;;;;5.20;2.33;;;;;;;;;;5076637;28;20478;-82
2022/03/28 01:30:22;;;;;;;7.47;2.40;;;;;;;;;;5076942;28;20032;-81
2022/03/28 01:32:52;;;;;;;7.45;2.25;;;;;;;;;;5076737;28;20028;-84
2022/03/28 01:35:30;;;;;;;7.90;2.00;;;;;;;;;;5094907;28;20035;-82
2022/03/28 01:37:55;;;;;;;5.50;2.17;;;;;;;;;;5094993;28;20133;-83
2022/03/28 01:40:21;;;;;;;4.82;2.05;;;;;;;;;;5095029;28;20111;-84
2022/03/28 01:42:49;;;;;;;5.25;1.90;;;;;;;;;;5076616;28;20085;-83
2022/03/28 01:45:15;;;;;;;8.77;2.60;;;;;;;;;;5077493;28;20121;-84
2022/03/28 01:47:40;;;;;;;6.13;2.15;;;;;;;;;;5094354;28;20039;-82
2022/03/28 01:50:07;;;;;;;6.43;1.98;;;;;;;;;;5094681;28;20024;-83
2022/03/28 01:52:32;;;;;;;4.35;2.00;;;;;;;;;;5094930;28;20128;-81
2022/03/28 01:54:58;;;;;;;7.10;2.03;;;;;;;;;;5094738;28;20495;-83
2022/03/28 01:57:23;;;;;;;7.35;2.35;;;;;;;;;;5076241;28;20035;-80
2022/03/28 01:59:48;;;;;;;4.65;1.95;;;;;;;;;;5059405;28;20118;-82
2022/03/28 02:02:14;;;;;;;7.32;2.20;;;;;;;;;;5076236;28;20051;-82
2022/03/28 02:04:39;;;;;;;8.18;2.20;;;;;;;;;;5075734;28;20051;-82
2022/03/28 02:07:04;;;;;;;6.10;2.40;;;;;;;;;;5076245;28;20036;-82
2022/03/28 02:09:30;;;;;;;5.97;2.42;;;;;;;;;;5076195;28;20471;-82
2022/03/28 02:11:55;;;;;;;5.95;1.92;;;;;;;;;;5059225;28;20118;-84
2022/03/28 02:14:21;;;;;;;6.38;2.13;;;;;;;;;;5059532;28;20028;-84
2022/03/28 02:16:47;;;;;;;5.45;2.15;;;;;;;;;;5059330;28;20028;-84
2022/03/28 02:19:12;;;;;;;3.40;1.55;;;;;;;;;;5094511;28;20027;-84
2022/03/28 02:21:38;;;;;;;7.72;2.25;;;;;;;;;;5059114;28;20131;-84
2022/03/28 02:24:03;;;;;;;4.38;2.25;;;;;;;;;;5076044;28;20098;-84
2022/03/28 02:26:29;;;;;;;4.72;1.88;;;;;;;;;;5093695;28;20419;-84
2022/03/28 02:28:54;;;;;;;3.85;1.85;;;;;;;;;;5059304;28;20031;-83
2022/03/28 02:31:20;;;;;;;5.32;2.15;;;;;;;;;;5093652;28;20443;-83
2022/03/28 02:33:45;;;;;;;6.35;1.63;;;;;;;;;;5093828;28;20046;-83
2022/03/28 02:36:11;;;;;;;5.13;1.83;;;;;;;;;;5075658;28;20032;-84
2022/03/28 02:38:36;;;;;;;5.80;2.38;;;;;;;;;;5075544;28;20085;-84
2022/03/28 02:41:02;;;;;;;5.43;1.83;;;;;;;;;;5075398;28;20032;-84
2022/03/28 02:43:28;;;;;;;7.75;2.25;;;;;;;;;;5075327;28;20038;-84
2022/03/28 02:45:53;;;;;;;5.13;2.10;;;;;;;;;;5075507;28;20054;-84
2022/03/28 02:48:19;;;;;;;5.38;2.20;;;;;;;;;;5075080;28;20111;-85
2022/03/28 02:50:45;;;;;;;6.63;2.00;;;;;;;;;;5075115;28;20064;-84
2022/03/28 02:53:11;;;;;;;6.88;2.20;;;;;;;;;;5075440;28;20023;-84
2022/03/28 02:55:37;;;;;;;4.95;1.95;;;;;;;;;;5075731;28;20024;-84
2022/03/28 02:58:03;;;;;;;5.95;1.92;;;;;;;;;;5075702;28;20016;-84
2022/03/28 03:00:28;;;;;;;6.72;1.98;;;;;;;;;;5093439;28;20540;-84
2022/03/28 03:02:54;;;;;;;4.60;2.13;;;;;;;;;;5075935;28;20032;-84
2022/03/28 03:05:19;;;;;;;5.60;2.00;;;;;;;;;;5074522;28;20052;-84
2022/03/28 03:07:48;;;;;;;4.72;2.08;;;;;;;;;;5093540;28;20459;-83
2022/03/28 03:10:14;;;;;;;5.75;1.95;;;;;;;;;;5075263;28;20085;-84
2022/03/28 03:12:39;;;;;;;4.05;1.88;;;;;;;;;;5075900;28;20092;-83
2022/03/28 03:15:05;;;;;;;6.55;2.05;;;;;;;;;;5092902;28;20118;-83
2022/03/28 03:17:31;;;;;;;6.80;2.17;;;;;;;;;;5057987;28;20038;-83
2022/03/28 03:19:56;;;;;;;3.83;1.90;;;;;;;;;;5075691;28;20024;-84
2022/03/28 03:22:22;;;;;;;5.40;1.98;;;;;;;;;;5093209;28;20470;-84
2022/03/28 03:24:47;;;;;;;5.88;1.83;;;;;;;;;;5094286;28;20036;-84
2022/03/28 03:27:13;;;;;;;4.50;1.88;;;;;;;;;;5074643;28;20474;-84
2022/03/28 03:29:39;;;;;;;5.65;2.33;;;;;;;;;;5075779;28;20023;-83
2022/03/28 03:32:05;;;;;;;4.75;1.83;;;;;;;;;;5058554;28;20024;-84
2022/03/28 03:34:32;;;;;;;3.75;2.15;;;;;;;;;;5076859;28;20039;-84
2022/03/28 03:36:57;;;;;;;4.68;2.30;;;;;;;;;;5074705;28;20052;-84
2022/03/28 03:39:23;;;;;;;4.35;1.85;;;;;;;;;;5092887;28;20056;-84
2022/03/28 03:41:52;;;;;;;4.13;1.75;;;;;;;;;;5059756;28;20107;-84
2022/03/28 03:44:18;;;;;;;4.53;2.22;;;;;;;;;;5075091;28;20048;-84
2022/03/28 03:46:43;;;;;;;5.35;1.90;;;;;;;;;;5058503;28;20039;-84
2022/03/28 03:49:09;;;;;;;6.18;2.15;;;;;;;;;;5057435;28;20036;-84
2022/03/28 03:51:35;;;;;;;4.85;1.92;;;;;;;;;;5074445;28;20051;-84
2022/03/28 03:54:01;;;;;;;7.13;2.30;;;;;;;;;;5074537;28;20020;-83
2022/03/28 03:56:28;;;;;;;4.75;2.00;;;;;;;;;;5075501;28;20482;-84
2022/03/28 03:58:54;;;;;;;4.03;1.95;;;;;;;;;;5074619;28;20028;-84
2022/03/28 04:01:20;;;;;;;6.45;2.58;;;;;;;;;;5041314;28;20490;-84
2022/03/28 04:03:45;;;;;;;5.43;2.25;;;;;;;;;;5092374;28;20060;-84
2022/03/28 04:06:11;;;;;;;4.22;1.83;;;;;;;;;;5074484;28;20495;-84
2022/03/28 04:08:37;;;;;;;3.95;1.80;;;;;;;;;;5093656;28;20422;-83
2022/03/28 04:11:03;;;;;;;5.95;1.85;;;;;;;;;;5058039;28;20040;-84
2022/03/28 04:13:28;;;;;;;4.93;2.05;;;;;;;;;;5058412;28;20036;-83
2022/03/28 04:15:54;;;;;;;3.90;2.15;;;;;;;;;;5057243;28;20028;-84
2022/03/28 04:18:19;;;;;;;7.00;2.22;;;;;;;;;;5093021;28;20103;-84
2022/03/28 04:20:44;;;;;;;7.75;2.00;;;;;;;;;;5057271;28;20462;-82
2022/03/28 04:23:10;;;;;;;5.20;1.83;;;;;;;;;;5092145;28;20043;-82
2022/03/28 04:25:35;;;;;;;3.78;1.85;;;;;;;;;;5074321;28;20067;-83
2022/03/28 04:28:01;;;;;;;5.07;2.13;;;;;;;;;;5094054;28;20043;-83
2022/03/28 04:30:26;;;;;;;5.18;2.45;;;;;;;;;;5078467;28;20024;-85
2022/03/28 04:32:52;;;;;;;5.15;1.98;;;;;;;;;;5100370;28;20024;-82
2022/03/28 04:35:19;;;;;;;5.00;2.53;;;;;;;;;;5077982;28;20036;-82
2022/03/28 04:37:44;;;;;;;6.38;1.98;;;;;;;;;;5096168;28;20394;-83
2022/03/28 04:40:13;;;;;;;7.10;2.53;;;;;;;;;;5097628;28;20028;-85
2022/03/28 04:42:50;;;;;;;2.95;1.85;;;;;;;;;;5078272;28;20027;-85
2022/03/28 04:45:16;;;;;;;4.18;2.10;;;;;;;;;;5096503;28;20032;-85
2022/03/28 04:47:41;;;;;;;5.22;2.13;;;;;;;;;;5096521;28;20028;-83
2022/03/28 04:50:08;;;;;;;4.50;2.45;;;;;;;;;;5078389;28;20039;-85
2022/03/28 04:52:34;;;;;;;4.65;2.00;;;;;;;;;;5078860;28;20031;-85
2022/03/28 04:54:59;;;;;;;3.13;1.85;;;;;;;;;;5078621;28;20073;-85
2022/03/28 04:57:25;;;;;;;4.53;1.73;;;;;;;;;;5096627;28;20036;-85
2022/03/28 04:59:50;;;;;;;5.18;2.10;;;;;;;;;;5079063;28;20067;-88
2022/03/28 05:02:16;;;;;;;6.03;2.40;;;;;;;;;;5079839;28;20032;-85
2022/03/28 05:04:41;;;;;;;5.53;2.38;;;;;;;;;;5061190;28;20080;-81
2022/03/28 05:07:07;;;;;;;8.38;2.70;;;;;;;;;;5078300;28;20447;-86
2022/03/28 05:09:32;;;;;;;8.30;2.75;;;;;;;;;;5100180;28;20039;-86
2022/03/28 05:11:58;;;;;;;10.45;2.53;;;;;;;;;;5067357;28;20056;-85
2022/03/28 05:14:24;;;;;;;6.07;2.20;;;;;;;;;;5061679;28;20404;-86
2022/03/28 05:16:49;;;;;;;11.48;2.90;;;;;;;;;;5078359;28;20031;-85
2022/03/28 05:19:15;;;;;;;6.15;2.25;;;;;;;;;;5096383;28;20028;-85
2022/03/28 05:21:40;;;;;;;5.40;2.10;;;;;;;;;;5098100;28;20057;-84
2022/03/28 05:24:06;;;;;;;9.77;2.58;;;;;;;;;;5080175;28;20066;-86
2022/03/28 05:26:31;;;;;;;6.43;2.20;;;;;;;;;;5078440;28;20024;-85
2022/03/28 05:28:57;;;;;;;5.70;2.00;;;;;;;;;;5097201;28;20050;-86
2022/03/28 05:31:25;;;;;;;4.57;1.88;;;;;;;;;;5078912;28;20035;-86
2022/03/28 05:33:50;;;;;;;5.63;1.98;;;;;;;;;;5078871;28;20092;-86
2022/03/28 05:36:16;;;;;;;7.47;2.30;;;;;;;;;;5098128;28;20146;-86
2022/03/28 05:38:42;;;;;;;7.53;2.38;;;;;;;;;;5078614;28;20523;-86
2022/03/28 05:41:08;;;;;;;6.32;1.85;;;;;;;;;;5097287;28;20026;-87
2022/03/28 05:43:34;;;;;;;7.68;2.20;;;;;;;;;;5096014;28;20099;-87
2022/03/28 05:46:00;;;;;;;6.57;2.10;;;;;;;;;;5081368;28;20032;-88
2022/03/28 05:48:25;;;;;;;7.38;2.20;;;;;;;;;;5077221;28;20051;-89
2022/03/28 05:50:51;;;;;;;6.55;2.22;;;;;;;;;;5096454;28;20471;-87
2022/03/28 05:53:16;;;;;;;5.43;2.05;;;;;;;;;;5079794;28;20031;-88
2022/03/28 05:55:43;;;;;;;5.05;1.88;;;;;;;;;;5078757;28;20024;-88
2022/03/28 05:58:10;;;;;;;3.00;1.52;;;;;;;;;;5079020;28;20026;-89
2022/03/28 06:00:39;;;;;;;3.40;1.80;;;;;;;;;;5077354;28;20058;-88
2022/03/28 06:03:04;;;;;;;3.83;1.60;;;;;;;;;;5095861;28;20031;-88
2022/03/28 06:05:31;;;;;;;2.20;1.48;;;;;;;;;;5095793;28;20078;-86
2022/03/28 06:07:57;;;;;;;2.10;1.50;;;;;;;;;;5095509;28;20059;-85
2022/03/28 06:10:22;;;;;;;5.97;1.83;;;;;;;;;;5096544;28;20028;-86
2022/03/28 06:12:48;;;;;;;2.75;1.42;;;;;;;;;;5095328;28;20082;-86
2022/03/28 06:15:13;;;;;;;3.97;1.40;;;;;;;;;;5060749;28;20513;-86
2022/03/28 06:17:39;;;;;;;3.20;1.55;;;;;;;;;;5095959;28;20127;-86
2022/03/28 06:20:05;;;;;;;2.22;1.60;;;;;;;;;;5095772;28;20043;-86
2022/03/28 06:22:31;;;;;;;2.58;1.50;;;;;;;;;;5060733;28;20024;-86
2022/03/28 06:24:56;;;;;;;2.05;1.45;;;;;;;;;;5062830;28;20039;-86
2022/03/28 06:27:24;;;;;;;4.63;1.70;;;;;;;;;;5097860;28;20023;-84
2022/03/28 06:29:52;;;;;;;3.38;1.65;;;;;;;;;;5097022;28;20020;-85
2022/03/28 06:32:17;;;;;;;2.50;1.63;;;;;;;;;;5095675;28;20030;-88
2022/03/28 06:34:43;;;;;;;3.45;1.70;;;;;;;;;;5077951;28;20028;-88
2022/03/28 06:37:08;;;;;;;1.77;1.60;;;;;;;;;;5077616;28;20066;-87
2022/03/28 06:39:34;;;;;;;2.58;1.67;;;;;;;;;;5076861;28;20116;-87
2022/03/28 06:42:00;;;;;;;2.05;1.58;;;;;;;;;;5095383;28;20103;-87
2022/03/28 06:44:25;;;;;;;1.63;1.48;;;;;;;;;;5076873;28;20024;-87
2022/03/28 06:46:51;;;;;;;1.85;1.50;;;;;;;;;;5077242;28;20024;-85
2022/03/28 06:49:16;;;;;;;1.75;1.48;;;;;;;;;;5077212;28;20044;-85
2022/03/28 06:51:42;;;;;;;2.85;1.48;;;;;;;;;;5075617;28;20020;-85
2022/03/28 06:54:08;;;;;;;1.80;1.40;;;;;;;;;;5076661;28;20048;-85
2022/03/28 06:56:35;;;;;;;2.15;1.55;;;;;;;;;;5077359;28;20039;-85
2022/03/28 06:59:01;;;;;;;1.38;1.15;;;;;;;;;;5042952;28;20115;-86
2022/03/28 07:01:26;;;;;;;1.50;1.27;;;;;;;;;;5095722;28;20485;-86
2022/03/28 07:03:53;;;;;;;1.88;1.30;;;;;;;;;;5059239;28;20423;-86
2022/03/28 07:06:19;;;;;;;2.70;1.20;;;;;;;;;;5059388;28;20052;-84
2022/03/28 07:08:44;;;;;;;2.45;1.20;;;;;;;;;;5060057;28;20498;-86
2022/03/28 07:11:10;;;;;;;1.75;1.23;;;;;;;;;;5058145;28;20100;-84
2022/03/28 07:13:35;;;;;;;2.10;1.50;;;;;;;;;;5058770;28;20498;-85
2022/03/28 07:16:00;;;;;;;1.70;1.58;;;;;;;;;;5093028;28;20348;-86
2022/03/28 07:18:26;;;;;;;1.30;1.20;;;;;;;;;;5041581;28;20037;-86
2022/03/28 07:20:51;;;;;;;1.85;1.20;;;;;;;;;;5093199;28;20027;-85
2022/03/28 07:23:17;;;;;;;1.42;1.30;;;;;;;;;;5058510;28;20028;-84
2022/03/28 07:25:43;;;;;;;4.07;1.25;;;;;;;;;;5058884;28;20043;-85
2022/03/28 07:28:10;;;;;;;1.50;1.40;;;;;;;;;;5075624;28;20024;-84
2022/03/28 07:30:36;;;;;;;1.70;1.42;;;;;;;;;;5075838;28;20024;-85
2022/03/28 07:33:03;;;;;;;1.40;1.30;;;;;;;;;;5058752;28;20122;-88
2022/03/28 07:35:29;;;;;;;2.47;1.70;;;;;;;;;;5076045;28;20035;-86
2022/03/28 07:37:55;;;;;;;3.33;1.90;;;;;;;;;;5074814;28;20028;-85
2022/03/28 07:40:21;;;;;;;1.70;1.27;;;;;;;;;;5075215;28;20042;-84
2022/03/28 07:42:46;;;;;;;2.22;1.75;;;;;;;;;;5074755;28;20398;-84
2022/03/28 07:45:14;;;;;;;4.35;1.80;;;;;;;;;;5057981;28;20462;-84
2022/03/28 07:47:40;;;;;;;3.42;1.45;;;;;;;;;;5075215;28;20115;-85
2022/03/28 07:50:06;;;;;;;1.50;1.40;;;;;;;;;;5075618;28;20135;-90
2022/03/28 07:52:32;;;;;;;2.15;1.40;;;;;;;;;;5079892;28;20494;-90
2022/03/28 07:54:58;;;;;;;2.78;1.50;;;;;;;;;;5081388;28;20024;-86
2022/03/28 07:57:24;;;;;;;4.78;1.70;;;;;;;;;;5063974;28;20028;-87
2022/03/28 07:59:49;;;;;;;2.25;1.35;;;;;;;;;;5094829;28;20020;-86
2022/03/28 08:02:15;;;;;;;2.50;1.65;;;;;;;;;;5097430;28;20019;-86
2022/03/28 08:04:45;;;;;;;2.85;1.60;;;;;;;;;;5083840;28;20495;-84
2022/03/28 08:07:11;;;;;;;6.30;1.80;;;;;;;;;;5053740;28;20043;-85
2022/03/28 08:09:38;;;;;;;4.28;1.60;;;;;;;;;;5082865;28;20170;-85
2022/03/28 08:12:05;;;;;;;2.50;1.52;;;;;;;;;;5100216;28;20073;-87
2022/03/28 08:14:30;;;;;;;2.70;1.77;;;;;;;;;;5081402;28;20032;-86
2022/03/28 08:16:56;;;;;;;1.83;1.40;;;;;;;;;;5081616;28;20057;-87
2022/03/28 08:19:22;;;;;;;4.60;1.50;;;;;;;;;;5064727;28;20024;-87
2022/03/28 08:21:47;;;;;;;1.67;1.45;;;;;;;;;;5081265;28;20035;-84
2022/03/28 08:24:13;;;;;;;3.33;1.50;;;;;;;;;;5080951;28;20437;-84
2022/03/28 08:26:38;;;;;;;2.75;1.50;;;;;;;;;;5081359;28;20064;-84
2022/03/28 08:29:05;;;;;;;4.10;1.88;;;;;;;;;;5099130;28;20020;-85
2022/03/28 08:31:31;;;;;;;1.88;1.38;;;;;;;;;;5082379;28;20363;-85
2022/03/28 08:33:57;;;;;;;2.55;1.50;;;;;;;;;;5081365;28;20039;-83
2022/03/28 08:36:23;;;;;;;3.45;2.00;;;;;;;;;;5064943;28;20023;-84
2022/03/28 08:38:48;;;;;;;2.92;1.77;;;;;;;;;;5080960;28;20035;-83
2022/03/28 08:41:14;;;;;;;4.60;1.58;;;;;;;;;;5081604;28;20048;-84
2022/03/28 08:43:41;;;;;;;2.80;1.77;;;;;;;;;;5081264;28;20481;-84
2022/03/28 08:46:08;;;;;;;2.05;1.70;;;;;;;;;;5064506;28;20028;-83
2022/03/28 08:48:45;;;;;;;3.28;1.80;;;;;;;;;;5100564;28;20131;-85
2022/03/28 08:51:13;;;;;;;4.00;1.60;;;;;;;;;;5081920;28;20126;-86
2022/03/28 08:53:39;;;;;;;3.92;2.05;;;;;;;;;;5081491;28;20036;-87
2022/03/28 08:56:07;;;;;;;4.85;1.65;;;;;;;;;;5089213;28;20030;-83
2022/03/28 08:58:34;;;;;;;1.70;1.58;;;;;;;;;;5101691;28;20528;-83
2022/03/28 09:01:01;;;;;;;2.10;1.77;;;;;;;;;;5100891;28;20036;-83
2022/03/28 09:03:41;;;;;;;3.13;1.80;;;;;;;;;;5100956;28;20020;-81
2022/03/28 09:06:28;;;;;;;2.40;1.73;;;;;;;;;;5097632;28;20044;-83
2022/03/28 09:08:53;;;;;;;2.45;1.80;;;;;;;;;;5098916;28;20094;-83
2022/03/28 09:11:20;;;;;;;2.78;2.05;;;;;;;;;;5099010;28;20035;-84
2022/03/28 09:13:46;;;;;;;2.88;2.10;;;;;;;;;;5096200;28;20024;-84
2022/03/28 09:16:18;;;;;;;2.95;2.28;;;;;;;;;;5094833;28;20370;-83
2022/03/28 09:18:44;;;;;;;4.93;1.88;;;;;;;;;;5094747;28;20022;-82
2022/03/28 09:21:16;;;;;;;2.92;2.05;;;;;;;;;;5078299;28;20028;-86
2022/03/28 09:23:48;;;;;;;4.47;2.38;;;;;;;;;;5095046;28;20064;-85
2022/03/28 09:26:20;;;;;;;4.75;2.33;;;;;;;;;;5079005;28;20020;-85
2022/03/28 09:29:00;;;;;;;3.08;2.17;;;;;;;;;;5074971;28;20374;-84
2022/03/28 09:31:37;;;;;;;4.25;2.35;;;;;;;;;;5074496;28;20020;-85
2022/03/28 09:34:07;;;;;;;5.47;2.40;;;;;;;;;;5074996;28;20020;-84
2022/03/28 09:36:48;;;;;;;6.88;2.92;;;;;;;;;;5073584;28;20021;-83
2022/03/28 09:39:33;;;;;;;7.35;2.40;;;;;;;;;;5072983;28;20456;-85
2022/03/28 09:42:05;;;;;;;4.22;2.60;;;;;;;;;;5074908;28;20048;-85
2022/03/28 09:44:46;;;;;;;3.67;2.50;;;;;;;;;;5058369;28;20028;-84
2022/03/28 09:47:14;;;;;;;5.80;2.40;;;;;;;;;;5077137;28;20047;-84
2022/03/28 09:49:41;;;;;;;4.53;2.30;;;;;;;;;;5074708;28;20071;-84
2022/03/28 09:52:09;;;;;;;8.20;2.40;;;;;;;;;;5058173;28;20035;-85
2022/03/28 09:54:50;;;;;;;7.10;2.67;;;;;;;;;;5058788;28;20028;-83
2022/03/28 09:57:27;;;;;;;3.60;2.17;;;;;;;;;;5036909;28;20028;-84
2022/03/28 09:59:53;;;;;;;3.78;2.25;;;;;;;;;;5053153;28;20373;-79
2022/03/28 10:02:23;;;;;;;2.92;2.20;;;;;;;;;;5056820;28;20032;-86
2022/03/28 10:04:50;;;;;;;7.10;2.42;;;;;;;;;;5055410;28;20045;-85
2022/03/28 10:07:17;;;;;;;5.95;2.72;;;;;;;;;;5054173;28;20474;-85
2022/03/28 10:09:43;;;;;;;6.70;3.22;;;;;;;;;;5053943;28;20087;-85
2022/03/28 10:12:08;;;;;;;5.85;2.47;;;;;;;;;;5053295;28;20033;-85
2022/03/28 10:14:35;;;;;;;9.02;2.58;;;;;;;;;;5054794;28;20025;-85
2022/03/28 10:17:02;;;;;;;5.45;2.30;;;;;;;;;;5054839;28;20103;-85
2022/03/28 10:19:30;;;;;;;5.63;2.97;;;;;;;;;;5053700;28;20478;-85
2022/03/28 10:21:57;;;;;;;5.50;2.63;;;;;;;;;;5055197;28;20036;-85
2022/03/28 10:24:25;;;;;;;6.32;1.88;;;;;;;;;;5054766;28;20025;-85
2022/03/28 10:26:52;;;;;;;5.22;2.13;;;;;;;;;;5036367;28;20017;-86
2022/03/28 10:29:21;;;;;;;3.10;1.98;;;;;;;;;;5052809;28;20108;-86
2022/03/28 10:31:56;;;;;;;4.03;1.70;;;;;;;;;;5036305;28;20033;-86
2022/03/28 10:34:40;;;;;;;2.35;2.00;;;;;;;;;;5054200;28;20059;-86
2022/03/28 10:37:29;;;;;;;2.30;1.73;;;;;;;;;;5037115;28;20021;-86
2022/03/28 10:40:21;;;;;;;2.65;1.98;;;;;;;;;;5052829;28;20029;-84
2022/03/28 10:43:09;;;;;;;3.40;1.95;;;;;;;;;;5053432;28;20021;-83
2022/03/28 10:45:44;;;;;;;5.45;2.20;;;;;;;;;;5053902;28;20456;-84
2022/03/28 10:48:09;;;;;;;3.63;2.17;;;;;;;;;;5054153;28;20111;-84
2022/03/28 10:50:38;;;;;;;2.35;2.10;;;;;;;;;;5052326;28;20055;-84
2022/03/28 10:53:09;;;;;;;4.10;1.98;;;;;;;;;;5052517;28;20026;-84
2022/03/28 10:55:57;;;;;;;3.53;2.10;;;;;;;;;;5035566;28;20568;-84
2022/03/28 10:58:26;;;;;;;6.30;2.20;;;;;;;;;;5052937;28;20051;-89
2022/03/28 11:01:12;;;;;;;3.65;1.83;;;;;;;;;;5035656;28;20119;-84
2022/03/28 11:03:44;;;;;;;3.85;1.60;;;;;;;;;;5052241;28;20021;-85
2022/03/28 11:06:10;;;;;;;3.70;1.73;;;;;;;;;;5052451;28;20499;-86
2022/03/28 11:08:38;;;;;;;4.45;2.05;;;;;;;;;;5052066;28;20036;-84
2022/03/28 11:11:27;;;;;;;4.53;2.25;;;;;;;;;;5053068;28;20027;-85
2022/03/28 11:14:09;;;;;;;3.28;2.17;;;;;;;;;;5053365;28;20021;-84
2022/03/28 11:16:46;;;;;;;4.35;2.50;;;;;;;;;;5052682;28;20086;-84
2022/03/28 11:19:29;;;;;;;5.65;2.42;;;;;;;;;;5035691;28;20119;-85
2022/03/28 11:22:03;;;;;;;6.72;3.05;;;;;;;;;;5052538;28;20025;-86
2022/03/28 11:24:51;;;;;;;6.65;2.40;;;;;;;;;;5053519;28;20036;-87
2022/03/28 11:27:18;;;;;;;5.43;2.45;;;;;;;;;;5053503;28;20016;-86
2022/03/28 11:29:45;;;;;;;7.50;2.80;;;;;;;;;;5019428;28;20048;-87
2022/03/28 11:32:14;;;;;;;4.28;2.80;;;;;;;;;;5037002;28;20025;-87
2022/03/28 11:34:40;;;;;;;4.97;2.60;;;;;;;;;;5057616;28;20025;-87
2022/03/28 11:37:05;;;;;;;5.80;3.20;;;;;;;;;;5058046;28;20047;-87
2022/03/28 11:39:50;;;;;;;5.20;2.53;;;;;;;;;;5069989;28;20029;-87
2022/03/28 11:42:22;;;;;;;5.68;2.53;;;;;;;;;;5071707;28;20460;-87
2022/03/28 11:44:48;;;;;;;9.05;3.70;;;;;;;;;;5042713;28;20106;-87
2022/03/28 11:47:17;;;;;;;6.07;2.83;;;;;;;;;;5069771;28;20091;-86
2022/03/28 11:50:11;;;;;;;5.35;2.60;;;;;;;;;;5054699;28;20029;-86
2022/03/28 11:52:37;;;;;;;3.72;2.10;;;;;;;;;;5035429;28;20075;-87
2022/03/28 11:55:03;;;;;;;4.28;2.65;;;;;;;;;;5052184;28;20029;-86
2022/03/28 12:00:20;;;;;;;4.97;2.60;;;;;;;;;;5053098;28;20031;-85
2022/03/28 12:02:51;;;;;;;6.22;2.70;;;;;;;;;;5051398;28;20055;-85
2022/03/28 12:05:37;;;;;;;5.60;2.90;;;;;;;;;;5052818;28;20041;-84
2022/03/28 12:08:14;;;;;;;6.05;3.15;;;;;;;;;;5051407;28;20059;-84
2022/03/28 12:10:44;;;;;;;5.78;3.00;;;;;;;;;;5053808;28;20052;-86
2022/03/28 12:13:10;;;;;;;6.13;3.03;;;;;;;;;;5051823;28;20021;-87
2022/03/28 12:15:43;;;;;;;3.53;2.42;;;;;;;;;;5019305;28;20499;-86
2022/03/28 12:18:09;;;;;;;4.75;2.63;;;;;;;;;;5051799;28;20028;-86
2022/03/28 12:20:38;;;;;;;14.32;3.15;;;;;;;;;;5051924;28;20025;-86
2022/03/28 12:23:05;;;;;;;5.10;2.53;;;;;;;;;;5052379;28;20051;-87
2022/03/28 12:25:43;;;;;;;4.90;2.17;;;;;;;;;;5034911;28;20063;-86
2022/03/28 12:28:25;;;;;;;5.65;2.20;;;;;;;;;;5052058;28;20033;-84
2022/03/28 12:30:56;;;;;;;4.68;2.53;;;;;;;;;;5051973;28;20021;-84
2022/03/28 12:33:26;;;;;;;6.40;2.70;;;;;;;;;;5052393;28;20061;-85
2022/03/28 12:36:03;;;;;;;9.70;3.08;;;;;;;;;;5053254;28;20021;-85
2022/03/28 12:38:34;;;;;;;6.28;2.97;;;;;;;;;;5053978;28;20248;-85
2022/03/28 12:41:05;;;;;;;5.10;2.28;;;;;;;;;;5052354;28;20037;-85
2022/03/28 12:43:33;;;;;;;5.35;2.55;;;;;;;;;;5068612;28;20499;-85
2022/03/28 12:46:02;;;;;;;4.55;2.20;;;;;;;;;;5035129;28;20597;-85
2022/03/28 12:48:49;;;;;;;5.45;2.30;;;;;;;;;;5051998;28;20079;-85
2022/03/28 12:51:30;;;;;;;4.53;2.25;;;;;;;;;;5055465;28;20050;-85
2022/03/28 12:54:06;;;;;;;5.57;2.67;;;;;;;;;;5041204;28;20120;-85
2022/03/28 12:56:48;;;;;;;3.28;1.73;;;;;;;;;;5056877;28;20075;-86
2022/03/28 12:59:20;;;;;;;5.13;2.60;;;;;;;;;;5058557;28;20028;-86
2022/03/28 13:01:47;;;;;;;5.00;2.10;;;;;;;;;;5056931;28;20130;-84
2022/03/28 13:04:21;;;;;;;2.97;2.15;;;;;;;;;;5055140;28;20128;-84
2022/03/28 13:07:00;;;;;;;4.68;2.08;;;;;;;;;;5055539;28;20132;-84
2022/03/28 13:09:26;;;;;;;3.55;2.20;;;;;;;;;;5055092;28;20086;-83
2022/03/28 13:11:52;;;;;;;6.07;2.40;;;;;;;;;;5055523;28;20021;-83
2022/03/28 13:14:30;;;;;;;5.60;2.13;;;;;;;;;;5055533;28;20025;-84
2022/03/28 13:17:08;;;;;;;7.00;2.47;;;;;;;;;;5038741;28;20078;-84
2022/03/28 13:19:38;;;;;;;3.72;2.20;;;;;;;;;;5056512;28;20017;-84
2022/03/28 13:22:05;;;;;;;5.45;2.13;;;;;;;;;;5055477;28;20025;-84
2022/03/28 13:24:32;;;;;;;5.60;2.67;;;;;;;;;;5038482;28;20502;-84
2022/03/28 13:30:01;;;;;;;4.45;2.22;;;;;;;;;;5057454;28;20090;-84
2022/03/28 13:32:26;;;;;;;4.45;2.25;;;;;;;;;;5022219;28;20467;-84
2022/03/28 13:34:52;;;;;;;7.30;2.50;;;;;;;;;;5038083;28;20098;-84
2022/03/28 13:37:22;;;;;;;5.35;2.55;;;;;;;;;;5054439;28;20033;-84
2022/03/28 13:39:47;;;;;;;4.93;2.55;;;;;;;;;;5037622;28;20025;-85
2022/03/28 13:42:13;;;;;;;4.45;2.20;;;;;;;;;;5055379;28;20361;-85
2022/03/28 13:44:39;;;;;;;4.32;2.70;;;;;;;;;;5054560;28;20040;-86
2022/03/28 13:47:05;;;;;;;4.30;2.33;;;;;;;;;;5055235;28;20028;-85
2022/03/28 13:49:30;;;;;;;3.47;2.13;;;;;;;;;;5070970;28;20036;-86
2022/03/28 13:51:56;;;;;;;4.63;2.38;;;;;;;;;;5053979;28;20029;-87
2022/03/28 13:54:22;;;;;;;7.38;3.30;;;;;;;;;;5055112;28;20127;-87
2022/03/28 13:56:47;;;;;;;8.20;3.17;;;;;;;;;;5055226;28;20048;-87
2022/03/28 13:59:13;;;;;;;5.88;3.28;;;;;;;;;;5054408;28;20029;-87
2022/03/28 14:01:40;;;;;;;5.95;2.72;;;;;;;;;;5037804;28;20105;-87
2022/03/28 14:04:09;;;;;;;6.50;2.97;;;;;;;;;;5005444;28;20482;-87
2022/03/28 14:06:34;;;;;;;11.38;3.80;;;;;;;;;;5034542;28;20100;-87
2022/03/28 14:09:00;;;;;;;7.88;3.50;;;;;;;;;;5033520;28;20037;-86
2022/03/28 14:11:25;;;;;;;4.90;3.10;;;;;;;;;;5034533;28;20029;-85
2022/03/28 14:13:51;;;;;;;5.97;3.40;;;;;;;;;;5034946;28;20449;-83
2022/03/28 14:16:19;;;;;;;7.22;2.95;;;;;;;;;;5017606;28;20041;-85
2022/03/28 14:18:45;;;;;;;6.20;3.45;;;;;;;;;;5017232;28;20025;-84
2022/03/28 14:21:11;;;;;;;7.82;3.47;;;;;;;;;;5017423;28;20450;-84
2022/03/28 14:23:36;;;;;;;8.35;3.45;;;;;;;;;;5033315;28;20030;-84
2022/03/28 14:26:02;;;;;;;7.55;3.65;;;;;;;;;;5033725;28;20500;-84
2022/03/28 14:28:28;;;;;;;5.78;3.13;;;;;;;;;;5017638;28;20504;-85
2022/03/28 14:30:54;;;;;;;5.57;3.50;;;;;;;;;;5033347;28;20033;-86
2022/03/28 14:33:20;;;;;;;4.18;2.60;;;;;;;;;;5035578;28;20095;-84
2022/03/28 14:35:45;;;;;;;6.53;3.35;;;;;;;;;;5000158;28;20030;-85
2022/03/28 14:38:12;;;;;;;6.68;3.67;;;;;;;;;;5034394;28;20364;-84
2022/03/28 14:40:38;;;;;;;9.02;3.72;;;;;;;;;;5034266;28;20034;-85
2022/03/28 14:43:05;;;;;;;10.88;3.63;;;;;;;;;;5033838;28;20572;-84
2022/03/28 14:46:59;;;;;;;6.47;3.63;;;;;;;;;;5016320;28;20025;-85
2022/03/28 14:48:16;;;;;;;8.75;3.85;;;;;;;;;;5032587;28;20485;-85
2022/03/28 14:50:42;;;;;;;7.88;3.60;;;;;;;;;;5033076;28;20036;-85
2022/03/28 14:53:07;;;;;;;7.05;3.42;;;;;;;;;;5017523;28;20112;-85
2022/03/28 14:55:32;;;;;;;5.40;3.08;;;;;;;;;;5016802;28;20044;-86
2022/03/28 14:57:58;;;;;;;9.15;3.05;;;;;;;;;;5000509;28;20040;-85